sensor_id;sensor_type;location;lat;lon;timestamp;P1;durP1;ratioP1;P2;durP2;ratioP2
1885;SDS011;943;51.568;6.998;2022-09-25T00:01:25;12.20;;;7.53;;
1885;SDS011;943;51.568;6.998;2022-09-25T00:03:53;18.60;;;8.40;;
1885;SDS011;943;51.568;6.998;2022-09-25T00:06:21;11.00;;;7.63;;
1885;SDS011;943;51.568;6.998;2022-09-25T00:08:54;8.40;;;6.30;;
1885;SDS011;943;51.568;6.998;2022-09-25T00:11:24;12.47;;;6.37;;
1885;SDS011;943;51.568;6.998;2022-09-25T00:13:58;10.53;;;6.77;;
1885;SDS011;943;51.568;6.998;2022-09-25T00:16:29;15.73;;;6.50;;
1885;SDS011;943;51.568;6.998;2022-09-25T00:18:59;11.43;;;6.07;;
1885;SDS011;943;51.568;6.998;2022-09-25T00:21:45;9.43;;;5.50;;
1885;SDS011;943;51.568;6.998;2022-09-25T00:24:19;7.70;;;4.93;;
1885;SDS011;943;51.568;6.998;2022-09-25T00:26:48;8.73;;;5.10;;
1885;SDS011;943;51.568;6.998;2022-09-25T00:29:17;11.70;;;5.47;;
1885;SDS011;943;51.568;6.998;2022-09-25T00:31:47;13.20;;;5.40;;
1885;SDS011;943;51.568;6.998;2022-09-25T00:34:16;9.30;;;5.13;;
1885;SDS011;943;51.568;6.998;2022-09-25T00:36:45;9.30;;;4.50;;
1885;SDS011;943;51.568;6.998;2022-09-25T00:39:14;13.47;;;5.30;;
1885;SDS011;943;51.568;6.998;2022-09-25T00:41:41;13.80;;;4.23;;
1885;SDS011;943;51.568;6.998;2022-09-25T00:48:02;8.93;;;4.83;;
1885;SDS011;943;51.568;6.998;2022-09-25T00:50:44;15.13;;;5.20;;
1885;SDS011;943;51.568;6.998;2022-09-25T00:53:23;8.83;;;4.30;;
1885;SDS011;943;51.568;6.998;2022-09-25T00:56:02;5.40;;;4.23;;
1885;SDS011;943;51.568;6.998;2022-09-25T00:58:37;6.30;;;4.37;;
1885;SDS011;943;51.568;6.998;2022-09-25T01:01:07;10.03;;;3.90;;
1885;SDS011;943;51.568;6.998;2022-09-25T01:03:35;7.30;;;4.37;;
1885;SDS011;943;51.568;6.998;2022-09-25T01:06:07;13.23;;;3.73;;
1885;SDS011;943;51.568;6.998;2022-09-25T01:08:38;10.63;;;4.17;;
1885;SDS011;943;51.568;6.998;2022-09-25T01:11:09;8.60;;;3.80;;
1885;SDS011;943;51.568;6.998;2022-09-25T01:13:39;6.10;;;4.30;;
1885;SDS011;943;51.568;6.998;2022-09-25T01:16:13;9.47;;;4.33;;
1885;SDS011;943;51.568;6.998;2022-09-25T01:19:56;6.00;;;3.17;;
1885;SDS011;943;51.568;6.998;2022-09-25T01:29:11;8.57;;;3.87;;
1885;SDS011;943;51.568;6.998;2022-09-25T01:35:09;11.23;;;5.10;;
1885;SDS011;943;51.568;6.998;2022-09-25T01:38:09;9.60;;;4.30;;
1885;SDS011;943;51.568;6.998;2022-09-25T01:41:20;10.93;;;4.07;;
1885;SDS011;943;51.568;6.998;2022-09-25T01:44:28;10.97;;;4.10;;
1885;SDS011;943;51.568;6.998;2022-09-25T01:47:17;9.37;;;3.93;;
1885;SDS011;943;51.568;6.998;2022-09-25T01:50:00;11.43;;;4.00;;
1885;SDS011;943;51.568;6.998;2022-09-25T01:52:48;10.63;;;3.93;;
1885;SDS011;943;51.568;6.998;2022-09-25T01:55:26;12.20;;;3.20;;
1885;SDS011;943;51.568;6.998;2022-09-25T01:58:17;10.90;;;4.20;;
1885;SDS011;943;51.568;6.998;2022-09-25T02:01:10;11.23;;;3.60;;
1885;SDS011;943;51.568;6.998;2022-09-25T02:03:58;8.27;;;3.60;;
1885;SDS011;943;51.568;6.998;2022-09-25T02:06:47;10.63;;;3.47;;
1885;SDS011;943;51.568;6.998;2022-09-25T02:09:25;11.20;;;3.70;;
1885;SDS011;943;51.568;6.998;2022-09-25T02:12:13;9.37;;;4.33;;
1885;SDS011;943;51.568;6.998;2022-09-25T02:15:01;12.17;;;3.47;;
1885;SDS011;943;51.568;6.998;2022-09-25T02:17:58;9.30;;;3.40;;
1885;SDS011;943;51.568;6.998;2022-09-25T02:21:38;10.93;;;4.33;;
1885;SDS011;943;51.568;6.998;2022-09-25T02:24:36;10.57;;;3.67;;
1885;SDS011;943;51.568;6.998;2022-09-25T02:27:26;9.00;;;3.63;;
1885;SDS011;943;51.568;6.998;2022-09-25T02:29:55;8.73;;;4.80;;
1885;SDS011;943;51.568;6.998;2022-09-25T02:32:32;7.63;;;3.20;;
1885;SDS011;943;51.568;6.998;2022-09-25T02:35:00;13.83;;;3.70;;
1885;SDS011;943;51.568;6.998;2022-09-25T02:37:28;6.67;;;3.30;;
1885;SDS011;943;51.568;6.998;2022-09-25T02:39:57;7.10;;;3.03;;
1885;SDS011;943;51.568;6.998;2022-09-25T02:45:42;10.30;;;4.07;;
1885;SDS011;943;51.568;6.998;2022-09-25T02:51:54;10.80;;;3.07;;
1885;SDS011;943;51.568;6.998;2022-09-25T02:55:13;11.87;;;4.60;;
1885;SDS011;943;51.568;6.998;2022-09-25T02:58:10;6.83;;;3.50;;
1885;SDS011;943;51.568;6.998;2022-09-25T03:01:05;9.10;;;3.60;;
1885;SDS011;943;51.568;6.998;2022-09-25T03:03:41;7.13;;;3.40;;
1885;SDS011;943;51.568;6.998;2022-09-25T03:06:15;12.83;;;4.03;;
1885;SDS011;943;51.568;6.998;2022-09-25T03:08:44;11.83;;;3.40;;
1885;SDS011;943;51.568;6.998;2022-09-25T03:11:19;12.20;;;4.20;;
1885;SDS011;943;51.568;6.998;2022-09-25T03:13:56;7.50;;;5.53;;
1885;SDS011;943;51.568;6.998;2022-09-25T03:19:23;10.53;;;4.17;;
1885;SDS011;943;51.568;6.998;2022-09-25T03:21:56;9.40;;;3.93;;
1885;SDS011;943;51.568;6.998;2022-09-25T03:24:24;11.03;;;3.93;;
1885;SDS011;943;51.568;6.998;2022-09-25T03:26:53;11.70;;;4.10;;
1885;SDS011;943;51.568;6.998;2022-09-25T03:29:21;8.87;;;3.67;;
1885;SDS011;943;51.568;6.998;2022-09-25T03:31:50;9.87;;;4.13;;
1885;SDS011;943;51.568;6.998;2022-09-25T03:34:18;6.27;;;3.70;;
1885;SDS011;943;51.568;6.998;2022-09-25T03:36:50;10.67;;;3.60;;
1885;SDS011;943;51.568;6.998;2022-09-25T03:39:18;10.30;;;3.60;;
1885;SDS011;943;51.568;6.998;2022-09-25T03:41:54;9.87;;;3.47;;
1885;SDS011;943;51.568;6.998;2022-09-25T03:44:22;12.53;;;5.20;;
1885;SDS011;943;51.568;6.998;2022-09-25T03:46:51;9.80;;;4.00;;
1885;SDS011;943;51.568;6.998;2022-09-25T03:49:18;16.23;;;5.00;;
1885;SDS011;943;51.568;6.998;2022-09-25T03:51:46;8.20;;;3.70;;
1885;SDS011;943;51.568;6.998;2022-09-25T03:54:15;8.60;;;3.80;;
1885;SDS011;943;51.568;6.998;2022-09-25T03:56:42;12.63;;;4.33;;
1885;SDS011;943;51.568;6.998;2022-09-25T03:59:10;10.70;;;4.90;;
1885;SDS011;943;51.568;6.998;2022-09-25T04:01:38;9.07;;;4.20;;
1885;SDS011;943;51.568;6.998;2022-09-25T04:04:06;12.30;;;3.73;;
1885;SDS011;943;51.568;6.998;2022-09-25T04:06:33;8.00;;;3.30;;
1885;SDS011;943;51.568;6.998;2022-09-25T04:09:01;7.63;;;3.83;;
1885;SDS011;943;51.568;6.998;2022-09-25T04:11:29;11.23;;;4.40;;
1885;SDS011;943;51.568;6.998;2022-09-25T04:13:57;7.57;;;3.80;;
1885;SDS011;943;51.568;6.998;2022-09-25T04:16:25;7.50;;;3.40;;
1885;SDS011;943;51.568;6.998;2022-09-25T04:18:55;10.97;;;3.83;;
1885;SDS011;943;51.568;6.998;2022-09-25T04:21:23;8.33;;;4.10;;
1885;SDS011;943;51.568;6.998;2022-09-25T04:23:51;9.73;;;4.33;;
1885;SDS011;943;51.568;6.998;2022-09-25T04:26:37;7.80;;;3.90;;
1885;SDS011;943;51.568;6.998;2022-09-25T04:29:05;13.03;;;4.30;;
1885;SDS011;943;51.568;6.998;2022-09-25T04:31:33;11.07;;;4.43;;
1885;SDS011;943;51.568;6.998;2022-09-25T04:34:00;15.33;;;4.80;;
1885;SDS011;943;51.568;6.998;2022-09-25T04:36:29;11.20;;;5.07;;
1885;SDS011;943;51.568;6.998;2022-09-25T04:38:57;14.83;;;4.10;;
1885;SDS011;943;51.568;6.998;2022-09-25T04:41:24;9.33;;;4.10;;
1885;SDS011;943;51.568;6.998;2022-09-25T04:43:53;11.67;;;4.60;;
1885;SDS011;943;51.568;6.998;2022-09-25T04:46:20;8.77;;;4.53;;
1885;SDS011;943;51.568;6.998;2022-09-25T04:48:48;9.60;;;3.87;;
1885;SDS011;943;51.568;6.998;2022-09-25T04:51:16;12.23;;;3.80;;
1885;SDS011;943;51.568;6.998;2022-09-25T04:53:44;7.87;;;3.60;;
1885;SDS011;943;51.568;6.998;2022-09-25T04:56:12;12.50;;;4.33;;
1885;SDS011;943;51.568;6.998;2022-09-25T04:58:45;8.93;;;3.53;;
1885;SDS011;943;51.568;6.998;2022-09-25T05:01:16;8.97;;;3.87;;
1885;SDS011;943;51.568;6.998;2022-09-25T05:03:47;11.47;;;4.37;;
1885;SDS011;943;51.568;6.998;2022-09-25T05:06:19;10.80;;;4.90;;
1885;SDS011;943;51.568;6.998;2022-09-25T05:08:48;13.30;;;4.63;;
1885;SDS011;943;51.568;6.998;2022-09-25T05:11:16;13.77;;;4.57;;
1885;SDS011;943;51.568;6.998;2022-09-25T05:13:47;11.90;;;4.83;;
1885;SDS011;943;51.568;6.998;2022-09-25T05:16:19;9.80;;;4.93;;
1885;SDS011;943;51.568;6.998;2022-09-25T05:18:47;12.53;;;5.87;;
1885;SDS011;943;51.568;6.998;2022-09-25T05:21:14;8.40;;;5.10;;
1885;SDS011;943;51.568;6.998;2022-09-25T05:23:42;11.60;;;4.97;;
1885;SDS011;943;51.568;6.998;2022-09-25T05:26:10;12.60;;;4.90;;
1885;SDS011;943;51.568;6.998;2022-09-25T05:28:37;17.37;;;5.00;;
1885;SDS011;943;51.568;6.998;2022-09-25T05:31:05;13.07;;;5.17;;
1885;SDS011;943;51.568;6.998;2022-09-25T05:33:33;9.43;;;4.87;;
1885;SDS011;943;51.568;6.998;2022-09-25T05:36:02;12.03;;;5.13;;
1885;SDS011;943;51.568;6.998;2022-09-25T05:38:34;9.97;;;5.00;;
1885;SDS011;943;51.568;6.998;2022-09-25T05:41:07;13.70;;;4.80;;
1885;SDS011;943;51.568;6.998;2022-09-25T05:43:37;9.20;;;4.80;;
1885;SDS011;943;51.568;6.998;2022-09-25T05:46:09;11.30;;;5.33;;
1885;SDS011;943;51.568;6.998;2022-09-25T05:48:38;11.63;;;4.63;;
1885;SDS011;943;51.568;6.998;2022-09-25T05:51:06;15.90;;;6.07;;
1885;SDS011;943;51.568;6.998;2022-09-25T05:53:36;16.93;;;5.30;;
1885;SDS011;943;51.568;6.998;2022-09-25T05:56:07;20.00;;;6.33;;
1885;SDS011;943;51.568;6.998;2022-09-25T05:58:34;10.90;;;5.37;;
1885;SDS011;943;51.568;6.998;2022-09-25T06:01:03;16.87;;;6.30;;
1885;SDS011;943;51.568;6.998;2022-09-25T06:03:33;12.30;;;5.40;;
1885;SDS011;943;51.568;6.998;2022-09-25T06:06:01;13.97;;;4.93;;
1885;SDS011;943;51.568;6.998;2022-09-25T06:08:32;12.43;;;5.37;;
1885;SDS011;943;51.568;6.998;2022-09-25T06:11:03;15.03;;;5.80;;
1885;SDS011;943;51.568;6.998;2022-09-25T06:13:33;10.73;;;5.63;;
1885;SDS011;943;51.568;6.998;2022-09-25T06:16:02;17.37;;;6.47;;
1885;SDS011;943;51.568;6.998;2022-09-25T06:18:40;19.93;;;6.90;;
1885;SDS011;943;51.568;6.998;2022-09-25T06:21:07;11.47;;;4.80;;
1885;SDS011;943;51.568;6.998;2022-09-25T06:23:35;12.30;;;5.47;;
1885;SDS011;943;51.568;6.998;2022-09-25T06:26:03;14.10;;;4.90;;
1885;SDS011;943;51.568;6.998;2022-09-25T06:28:33;17.40;;;6.27;;
1885;SDS011;943;51.568;6.998;2022-09-25T06:31:01;8.93;;;6.20;;
1885;SDS011;943;51.568;6.998;2022-09-25T06:33:31;9.70;;;5.50;;
1885;SDS011;943;51.568;6.998;2022-09-25T06:35:59;11.17;;;4.80;;
1885;SDS011;943;51.568;6.998;2022-09-25T06:38:30;10.07;;;5.20;;
1885;SDS011;943;51.568;6.998;2022-09-25T06:40:59;8.37;;;4.70;;
1885;SDS011;943;51.568;6.998;2022-09-25T06:43:28;10.90;;;5.03;;
1885;SDS011;943;51.568;6.998;2022-09-25T06:46:00;14.60;;;5.53;;
1885;SDS011;943;51.568;6.998;2022-09-25T06:48:29;13.17;;;5.60;;
1885;SDS011;943;51.568;6.998;2022-09-25T06:50:57;10.87;;;4.73;;
1885;SDS011;943;51.568;6.998;2022-09-25T06:53:27;6.50;;;4.13;;
1885;SDS011;943;51.568;6.998;2022-09-25T06:55:55;9.10;;;3.70;;
1885;SDS011;943;51.568;6.998;2022-09-25T06:58:25;11.10;;;3.70;;
1885;SDS011;943;51.568;6.998;2022-09-25T07:00:56;6.53;;;3.37;;
1885;SDS011;943;51.568;6.998;2022-09-25T07:03:24;9.07;;;3.60;;
1885;SDS011;943;51.568;6.998;2022-09-25T07:06:18;7.73;;;2.63;;
1885;SDS011;943;51.568;6.998;2022-09-25T07:08:53;9.90;;;2.90;;
1885;SDS011;943;51.568;6.998;2022-09-25T07:11:23;8.17;;;2.97;;
1885;SDS011;943;51.568;6.998;2022-09-25T07:13:54;9.33;;;3.30;;
1885;SDS011;943;51.568;6.998;2022-09-25T07:16:23;8.70;;;3.00;;
1885;SDS011;943;51.568;6.998;2022-09-25T07:18:56;5.50;;;2.63;;
1885;SDS011;943;51.568;6.998;2022-09-25T07:21:26;9.70;;;3.07;;
1885;SDS011;943;51.568;6.998;2022-09-25T07:23:56;4.57;;;2.50;;
1885;SDS011;943;51.568;6.998;2022-09-25T07:26:27;5.83;;;2.20;;
1885;SDS011;943;51.568;6.998;2022-09-25T07:29:02;4.87;;;2.57;;
1885;SDS011;943;51.568;6.998;2022-09-25T07:31:32;7.33;;;2.17;;
1885;SDS011;943;51.568;6.998;2022-09-25T07:34:04;7.00;;;2.00;;
1885;SDS011;943;51.568;6.998;2022-09-25T07:36:35;4.80;;;1.70;;
1885;SDS011;943;51.568;6.998;2022-09-25T07:39:04;8.70;;;2.20;;
1885;SDS011;943;51.568;6.998;2022-09-25T07:41:32;8.07;;;2.60;;
1885;SDS011;943;51.568;6.998;2022-09-25T07:44:00;6.80;;;2.17;;
1885;SDS011;943;51.568;6.998;2022-09-25T07:46:49;7.10;;;1.87;;
1885;SDS011;943;51.568;6.998;2022-09-25T07:49:17;4.80;;;1.77;;
1885;SDS011;943;51.568;6.998;2022-09-25T07:51:44;6.93;;;2.40;;
1885;SDS011;943;51.568;6.998;2022-09-25T07:54:12;11.80;;;2.20;;
1885;SDS011;943;51.568;6.998;2022-09-25T07:56:40;5.87;;;1.90;;
1885;SDS011;943;51.568;6.998;2022-09-25T07:59:07;9.20;;;2.13;;
1885;SDS011;943;51.568;6.998;2022-09-25T08:01:35;5.93;;;2.37;;
1885;SDS011;943;51.568;6.998;2022-09-25T08:04:10;5.60;;;2.23;;
1885;SDS011;943;51.568;6.998;2022-09-25T08:06:38;5.10;;;2.03;;
1885;SDS011;943;51.568;6.998;2022-09-25T08:09:06;5.90;;;2.17;;
1885;SDS011;943;51.568;6.998;2022-09-25T08:11:36;5.27;;;2.00;;
1885;SDS011;943;51.568;6.998;2022-09-25T08:14:04;10.47;;;2.13;;
1885;SDS011;943;51.568;6.998;2022-09-25T08:16:32;6.93;;;1.87;;
1885;SDS011;943;51.568;6.998;2022-09-25T08:19:00;9.33;;;1.90;;
1885;SDS011;943;51.568;6.998;2022-09-25T08:21:29;5.30;;;1.80;;
1885;SDS011;943;51.568;6.998;2022-09-25T08:23:57;7.40;;;1.83;;
1885;SDS011;943;51.568;6.998;2022-09-25T08:26:26;7.67;;;2.23;;
1885;SDS011;943;51.568;6.998;2022-09-25T08:28:55;6.90;;;1.50;;
1885;SDS011;943;51.568;6.998;2022-09-25T08:31:24;6.83;;;1.63;;
1885;SDS011;943;51.568;6.998;2022-09-25T08:33:53;6.63;;;1.40;;
1885;SDS011;943;51.568;6.998;2022-09-25T08:36:21;7.93;;;1.57;;
1885;SDS011;943;51.568;6.998;2022-09-25T08:38:50;7.67;;;1.80;;
1885;SDS011;943;51.568;6.998;2022-09-25T08:41:35;9.00;;;1.90;;
1885;SDS011;943;51.568;6.998;2022-09-25T08:44:27;5.30;;;1.30;;
1885;SDS011;943;51.568;6.998;2022-09-25T08:47:33;5.83;;;1.77;;
1885;SDS011;943;51.568;6.998;2022-09-25T08:50:23;3.93;;;1.33;;
1885;SDS011;943;51.568;6.998;2022-09-25T08:52:55;8.80;;;2.23;;
1885;SDS011;943;51.568;6.998;2022-09-25T08:55:40;4.00;;;1.30;;
1885;SDS011;943;51.568;6.998;2022-09-25T08:58:30;7.30;;;1.97;;
1885;SDS011;943;51.568;6.998;2022-09-25T09:01:12;8.10;;;1.77;;
1885;SDS011;943;51.568;6.998;2022-09-25T09:03:56;4.30;;;1.70;;
1885;SDS011;943;51.568;6.998;2022-09-25T09:06:51;4.20;;;2.00;;
1885;SDS011;943;51.568;6.998;2022-09-25T09:10:05;6.40;;;1.50;;
1885;SDS011;943;51.568;6.998;2022-09-25T09:16:41;4.37;;;1.30;;
1885;SDS011;943;51.568;6.998;2022-09-25T09:19:26;4.33;;;1.37;;
1885;SDS011;943;51.568;6.998;2022-09-25T09:22:09;5.27;;;1.47;;
1885;SDS011;943;51.568;6.998;2022-09-25T09:24:51;4.07;;;1.00;;
1885;SDS011;943;51.568;6.998;2022-09-25T09:31:28;8.27;;;1.50;;
1885;SDS011;943;51.568;6.998;2022-09-25T09:47:34;7.50;;;1.80;;
1885;SDS011;943;51.568;6.998;2022-09-25T09:56:27;4.03;;;1.33;;
1885;SDS011;943;51.568;6.998;2022-09-25T10:01:59;8.67;;;1.70;;
1885;SDS011;943;51.568;6.998;2022-09-25T10:04:44;3.73;;;1.13;;
1885;SDS011;943;51.568;6.998;2022-09-25T10:07:16;5.47;;;1.40;;
1885;SDS011;943;51.568;6.998;2022-09-25T10:09:49;5.47;;;1.93;;
1885;SDS011;943;51.568;6.998;2022-09-25T10:12:22;5.10;;;1.10;;
1885;SDS011;943;51.568;6.998;2022-09-25T10:15:03;3.57;;;1.00;;
1885;SDS011;943;51.568;6.998;2022-09-25T10:18:07;4.27;;;1.10;;
1885;SDS011;943;51.568;6.998;2022-09-25T10:20:39;4.93;;;1.33;;
1885;SDS011;943;51.568;6.998;2022-09-25T10:26:30;6.80;;;1.30;;
1885;SDS011;943;51.568;6.998;2022-09-25T10:31:45;6.47;;;1.70;;
1885;SDS011;943;51.568;6.998;2022-09-25T10:34:20;5.63;;;1.33;;
1885;SDS011;943;51.568;6.998;2022-09-25T10:36:50;3.67;;;1.47;;
1885;SDS011;943;51.568;6.998;2022-09-25T10:42:31;4.97;;;1.40;;
1885;SDS011;943;51.568;6.998;2022-09-25T10:48:18;7.83;;;1.60;;
1885;SDS011;943;51.568;6.998;2022-09-25T10:51:25;3.60;;;1.40;;
1885;SDS011;943;51.568;6.998;2022-09-25T10:54:09;6.10;;;0.90;;
1885;SDS011;943;51.568;6.998;2022-09-25T10:56:41;4.07;;;1.00;;
1885;SDS011;943;51.568;6.998;2022-09-25T10:59:16;5.40;;;1.17;;
1885;SDS011;943;51.568;6.998;2022-09-25T11:01:49;4.07;;;1.20;;
1885;SDS011;943;51.568;6.998;2022-09-25T11:06:58;4.77;;;1.57;;
1885;SDS011;943;51.568;6.998;2022-09-25T11:09:34;6.03;;;1.90;;
1885;SDS011;943;51.568;6.998;2022-09-25T11:12:19;4.13;;;1.00;;
1885;SDS011;943;51.568;6.998;2022-09-25T11:14:53;4.73;;;1.10;;
1885;SDS011;943;51.568;6.998;2022-09-25T11:17:36;3.60;;;0.90;;
1885;SDS011;943;51.568;6.998;2022-09-25T11:22:51;5.50;;;1.03;;
1885;SDS011;943;51.568;6.998;2022-09-25T11:29:46;3.23;;;0.97;;
1885;SDS011;943;51.568;6.998;2022-09-25T11:35:52;4.60;;;2.30;;
1885;SDS011;943;51.568;6.998;2022-09-25T11:41:50;4.03;;;1.57;;
1885;SDS011;943;51.568;6.998;2022-09-25T11:44:33;3.57;;;1.10;;
1885;SDS011;943;51.568;6.998;2022-09-25T11:47:56;3.07;;;0.90;;
1885;SDS011;943;51.568;6.998;2022-09-25T11:51:15;4.07;;;1.20;;
1885;SDS011;943;51.568;6.998;2022-09-25T12:03:54;3.20;;;1.00;;
1885;SDS011;943;51.568;6.998;2022-09-25T12:07:15;3.53;;;0.93;;
1885;SDS011;943;51.568;6.998;2022-09-25T12:10:28;2.67;;;1.10;;
1885;SDS011;943;51.568;6.998;2022-09-25T12:13:41;2.37;;;0.90;;
1885;SDS011;943;51.568;6.998;2022-09-25T12:19:54;2.97;;;0.90;;
1885;SDS011;943;51.568;6.998;2022-09-25T12:26:13;5.60;;;1.20;;
1885;SDS011;943;51.568;6.998;2022-09-25T12:31:49;5.93;;;1.00;;
1885;SDS011;943;51.568;6.998;2022-09-25T12:38:38;4.53;;;1.80;;
1885;SDS011;943;51.568;6.998;2022-09-25T12:41:44;4.50;;;1.23;;
1885;SDS011;943;51.568;6.998;2022-09-25T12:45:10;4.30;;;1.20;;
1885;SDS011;943;51.568;6.998;2022-09-25T12:51:23;4.50;;;1.23;;
1885;SDS011;943;51.568;6.998;2022-09-25T12:54:24;5.40;;;1.30;;
1885;SDS011;943;51.568;6.998;2022-09-25T12:57:23;4.23;;;0.90;;
1885;SDS011;943;51.568;6.998;2022-09-25T13:00:16;3.63;;;1.00;;
1885;SDS011;943;51.568;6.998;2022-09-25T13:05:54;3.07;;;0.83;;
1885;SDS011;943;51.568;6.998;2022-09-25T13:09:11;3.33;;;0.93;;
1885;SDS011;943;51.568;6.998;2022-09-25T13:12:28;2.20;;;0.83;;
1885;SDS011;943;51.568;6.998;2022-09-25T13:15:09;3.57;;;1.00;;
1885;SDS011;943;51.568;6.998;2022-09-25T13:17:49;3.20;;;0.77;;
1885;SDS011;943;51.568;6.998;2022-09-25T13:23:05;3.13;;;1.00;;
1885;SDS011;943;51.568;6.998;2022-09-25T13:26:13;2.77;;;0.97;;
1885;SDS011;943;51.568;6.998;2022-09-25T13:28:58;5.00;;;0.80;;
1885;SDS011;943;51.568;6.998;2022-09-25T13:31:51;5.23;;;0.97;;
1885;SDS011;943;51.568;6.998;2022-09-25T13:34:54;3.40;;;0.73;;
1885;SDS011;943;51.568;6.998;2022-09-25T13:37:45;9.30;;;1.57;;
1885;SDS011;943;51.568;6.998;2022-09-25T13:40:21;2.50;;;0.87;;
1885;SDS011;943;51.568;6.998;2022-09-25T13:43:15;3.33;;;1.47;;
1885;SDS011;943;51.568;6.998;2022-09-25T13:48:47;1.80;;;0.60;;
1885;SDS011;943;51.568;6.998;2022-09-25T13:54:02;3.50;;;1.33;;
1885;SDS011;943;51.568;6.998;2022-09-25T13:56:53;4.23;;;1.33;;
1885;SDS011;943;51.568;6.998;2022-09-25T13:59:22;4.27;;;1.20;;
1885;SDS011;943;51.568;6.998;2022-09-25T14:05:12;4.70;;;0.90;;
1885;SDS011;943;51.568;6.998;2022-09-25T14:07:48;4.40;;;1.20;;
1885;SDS011;943;51.568;6.998;2022-09-25T14:10:33;2.80;;;1.17;;
1885;SDS011;943;51.568;6.998;2022-09-25T14:13:01;3.20;;;0.90;;
1885;SDS011;943;51.568;6.998;2022-09-25T14:15:33;2.13;;;0.80;;
1885;SDS011;943;51.568;6.998;2022-09-25T14:18:08;2.57;;;1.03;;
1885;SDS011;943;51.568;6.998;2022-09-25T14:21:01;4.77;;;1.33;;
1885;SDS011;943;51.568;6.998;2022-09-25T14:23:57;6.10;;;1.27;;
1885;SDS011;943;51.568;6.998;2022-09-25T14:26:43;5.03;;;1.60;;
1885;SDS011;943;51.568;6.998;2022-09-25T14:29:27;2.40;;;1.20;;
1885;SDS011;943;51.568;6.998;2022-09-25T14:36:25;3.40;;;1.03;;
1885;SDS011;943;51.568;6.998;2022-09-25T14:46:03;3.03;;;0.73;;
1885;SDS011;943;51.568;6.998;2022-09-25T14:48:47;2.90;;;0.80;;
1885;SDS011;943;51.568;6.998;2022-09-25T14:54:13;4.43;;;0.90;;
1885;SDS011;943;51.568;6.998;2022-09-25T14:56:55;2.80;;;1.10;;
1885;SDS011;943;51.568;6.998;2022-09-25T14:59:44;9.83;;;1.60;;
1885;SDS011;943;51.568;6.998;2022-09-25T15:07:52;5.63;;;0.90;;
1885;SDS011;943;51.568;6.998;2022-09-25T15:10:29;5.40;;;1.40;;
1885;SDS011;943;51.568;6.998;2022-09-25T15:13:18;3.37;;;1.20;;
1885;SDS011;943;51.568;6.998;2022-09-25T15:15:50;4.83;;;1.10;;
1885;SDS011;943;51.568;6.998;2022-09-25T15:18:43;3.23;;;1.00;;
1885;SDS011;943;51.568;6.998;2022-09-25T15:24:00;5.50;;;1.10;;
1885;SDS011;943;51.568;6.998;2022-09-25T15:26:45;5.47;;;1.33;;
1885;SDS011;943;51.568;6.998;2022-09-25T15:29:34;8.27;;;1.30;;
1885;SDS011;943;51.568;6.998;2022-09-25T15:32:22;2.30;;;0.80;;
1885;SDS011;943;51.568;6.998;2022-09-25T15:37:43;3.63;;;1.00;;
1885;SDS011;943;51.568;6.998;2022-09-25T15:42:54;4.10;;;1.10;;
1885;SDS011;943;51.568;6.998;2022-09-25T15:45:33;4.87;;;0.90;;
1885;SDS011;943;51.568;6.998;2022-09-25T15:48:25;12.00;;;1.67;;
1885;SDS011;943;51.568;6.998;2022-09-25T15:51:00;2.03;;;0.70;;
1885;SDS011;943;51.568;6.998;2022-09-25T15:53:58;8.10;;;1.40;;
1885;SDS011;943;51.568;6.998;2022-09-25T15:56:55;3.30;;;1.07;;
1885;SDS011;943;51.568;6.998;2022-09-25T15:59:39;2.80;;;1.03;;
1885;SDS011;943;51.568;6.998;2022-09-25T16:02:34;2.20;;;0.80;;
1885;SDS011;943;51.568;6.998;2022-09-25T16:05:34;3.40;;;0.90;;
1885;SDS011;943;51.568;6.998;2022-09-25T16:13:39;6.50;;;2.33;;
1885;SDS011;943;51.568;6.998;2022-09-25T16:18:56;2.63;;;0.90;;
1885;SDS011;943;51.568;6.998;2022-09-25T16:21:54;9.60;;;1.30;;
1885;SDS011;943;51.568;6.998;2022-09-25T16:24:38;4.70;;;0.90;;
1885;SDS011;943;51.568;6.998;2022-09-25T16:27:16;4.13;;;1.37;;
1885;SDS011;943;51.568;6.998;2022-09-25T16:30:00;2.57;;;1.00;;
1885;SDS011;943;51.568;6.998;2022-09-25T16:32:32;4.83;;;0.87;;
1885;SDS011;943;51.568;6.998;2022-09-25T16:35:00;4.80;;;2.17;;
1885;SDS011;943;51.568;6.998;2022-09-25T16:37:31;2.80;;;1.20;;
1885;SDS011;943;51.568;6.998;2022-09-25T16:42:46;8.93;;;2.17;;
1885;SDS011;943;51.568;6.998;2022-09-25T16:45:25;6.53;;;1.27;;
1885;SDS011;943;51.568;6.998;2022-09-25T16:48:00;2.80;;;1.23;;
1885;SDS011;943;51.568;6.998;2022-09-25T16:51:10;3.97;;;1.40;;
1885;SDS011;943;51.568;6.998;2022-09-25T16:53:52;3.87;;;1.13;;
1885;SDS011;943;51.568;6.998;2022-09-25T16:56:24;3.87;;;1.07;;
1885;SDS011;943;51.568;6.998;2022-09-25T16:58:57;2.87;;;1.17;;
1885;SDS011;943;51.568;6.998;2022-09-25T17:01:25;4.20;;;1.20;;
1885;SDS011;943;51.568;6.998;2022-09-25T17:03:57;2.93;;;1.10;;
1885;SDS011;943;51.568;6.998;2022-09-25T17:06:25;11.83;;;1.83;;
1885;SDS011;943;51.568;6.998;2022-09-25T17:08:56;3.17;;;1.23;;
1885;SDS011;943;51.568;6.998;2022-09-25T17:11:25;3.50;;;1.63;;
1885;SDS011;943;51.568;6.998;2022-09-25T17:13:54;3.90;;;1.30;;
1885;SDS011;943;51.568;6.998;2022-09-25T17:16:22;4.07;;;1.13;;
1885;SDS011;943;51.568;6.998;2022-09-25T17:18:50;2.90;;;1.60;;
1885;SDS011;943;51.568;6.998;2022-09-25T17:21:24;4.03;;;1.40;;
1885;SDS011;943;51.568;6.998;2022-09-25T17:23:52;2.80;;;1.50;;
1885;SDS011;943;51.568;6.998;2022-09-25T17:26:21;6.60;;;1.70;;
1885;SDS011;943;51.568;6.998;2022-09-25T17:28:50;6.00;;;1.20;;
1885;SDS011;943;51.568;6.998;2022-09-25T17:31:19;5.17;;;1.30;;
1885;SDS011;943;51.568;6.998;2022-09-25T17:33:48;7.20;;;1.53;;
1885;SDS011;943;51.568;6.998;2022-09-25T17:36:16;4.83;;;1.60;;
1885;SDS011;943;51.568;6.998;2022-09-25T17:38:45;3.60;;;1.67;;
1885;SDS011;943;51.568;6.998;2022-09-25T17:43:54;9.67;;;4.10;;
1885;SDS011;943;51.568;6.998;2022-09-25T17:46:25;5.70;;;2.10;;
1885;SDS011;943;51.568;6.998;2022-09-25T17:48:53;3.97;;;2.00;;
1885;SDS011;943;51.568;6.998;2022-09-25T17:51:23;6.13;;;2.37;;
1885;SDS011;943;51.568;6.998;2022-09-25T17:53:55;4.00;;;1.80;;
1885;SDS011;943;51.568;6.998;2022-09-25T17:56:27;4.00;;;2.43;;
1885;SDS011;943;51.568;6.998;2022-09-25T17:58:56;4.40;;;2.20;;
1885;SDS011;943;51.568;6.998;2022-09-25T18:01:25;4.37;;;2.00;;
1885;SDS011;943;51.568;6.998;2022-09-25T18:04:18;4.80;;;2.27;;
1885;SDS011;943;51.568;6.998;2022-09-25T18:06:51;4.67;;;2.30;;
1885;SDS011;943;51.568;6.998;2022-09-25T18:09:19;5.37;;;1.70;;
1885;SDS011;943;51.568;6.998;2022-09-25T18:11:46;4.10;;;1.93;;
1885;SDS011;943;51.568;6.998;2022-09-25T18:14:15;3.30;;;1.70;;
1885;SDS011;943;51.568;6.998;2022-09-25T18:16:43;4.40;;;2.23;;
1885;SDS011;943;51.568;6.998;2022-09-25T18:19:15;9.80;;;2.90;;
1885;SDS011;943;51.568;6.998;2022-09-25T18:22:04;5.33;;;2.40;;
1885;SDS011;943;51.568;6.998;2022-09-25T18:24:45;3.93;;;2.63;;
1885;SDS011;943;51.568;6.998;2022-09-25T18:27:23;4.33;;;2.30;;
1885;SDS011;943;51.568;6.998;2022-09-25T18:29:59;4.00;;;2.67;;
1885;SDS011;943;51.568;6.998;2022-09-25T18:32:27;7.63;;;2.30;;
1885;SDS011;943;51.568;6.998;2022-09-25T18:34:56;5.27;;;2.10;;
1885;SDS011;943;51.568;6.998;2022-09-25T18:37:24;5.23;;;1.90;;
1885;SDS011;943;51.568;6.998;2022-09-25T18:39:52;4.90;;;2.10;;
1885;SDS011;943;51.568;6.998;2022-09-25T18:42:20;8.33;;;2.27;;
1885;SDS011;943;51.568;6.998;2022-09-25T18:44:47;2.83;;;1.80;;
1885;SDS011;943;51.568;6.998;2022-09-25T18:47:15;3.87;;;2.20;;
1885;SDS011;943;51.568;6.998;2022-09-25T18:49:43;6.30;;;2.13;;
1885;SDS011;943;51.568;6.998;2022-09-25T18:52:11;8.63;;;2.50;;
1885;SDS011;943;51.568;6.998;2022-09-25T18:54:39;4.53;;;2.27;;
1885;SDS011;943;51.568;6.998;2022-09-25T18:57:08;5.07;;;2.10;;
1885;SDS011;943;51.568;6.998;2022-09-25T18:59:38;4.23;;;2.23;;
1885;SDS011;943;51.568;6.998;2022-09-25T19:02:28;7.93;;;2.40;;
1885;SDS011;943;51.568;6.998;2022-09-25T19:04:58;5.50;;;2.23;;
1885;SDS011;943;51.568;6.998;2022-09-25T19:07:26;3.90;;;1.93;;
1885;SDS011;943;51.568;6.998;2022-09-25T19:09:55;5.07;;;2.43;;
1885;SDS011;943;51.568;6.998;2022-09-25T19:12:24;4.67;;;2.30;;
1885;SDS011;943;51.568;6.998;2022-09-25T19:14:51;4.60;;;2.47;;